HOURLY OBS INDEX

088

Central - north

EILDON FIRE TOWER

Site: 088164
Alt: 637.0m
57km NNE of HEALESVILLE


  Time     Wind        Temp  DP   Baro     Rain since   Rain past  Vis(m), Cloud(base in m), Weather
  local        km/h                         9am  last   hr   10m    
Thu 17:00    W 28/ 37  22.4 11.8  ------    0.0   0.0   0.0   0.0   ----- 
Thu 17:30    W 20/ 32  22.3 11.7  ------    0.0   0.0   0.0   0.0   ----- 
Thu 18:00    W 26/ 39  20.6 11.5  ------    0.0   0.0   0.0   0.0   ----- 
Thu 18:30    W 33/ 39  19.3 11.3  ------    0.0   0.0   0.0   0.0   ----- 
Thu 19:00    W 28/ 35  18.8 11.1  ------    0.0   0.0   0.0   0.0   ----- 
Thu 19:30    W 30/ 35  17.4 10.1  ------    0.0   0.0   0.0   0.0   ----- 
Thu 20:00    W 26/ 33  16.0  9.7  ------    0.0   0.0   0.0   0.0   ----- 
Thu 20:30  WSW 15/ 22  14.8  9.2  ------    0.0   0.0   0.0   0.0   ----- 
Thu 21:00    W 17/ 24  14.2  9.0  ------    0.0   0.0   0.0   0.0   ----- 
Thu 21:30    W 11/ 19  13.4  8.5  ------    0.0   0.0   0.0   0.0   ----- 
Thu 22:00  WSW 11/ 17  13.1  8.4  ------    0.0   0.0   0.0   0.0   ----- 

MANGALORE AIRPORT

Site: 088109
Alt: 140.8m
16km NNE of SEYMOUR


  Time     Wind        Temp  DP   Baro     Rain since   Rain past  Vis(m), Cloud(base in m), Weather
  local        km/h                         9am  last   hr   10m    
Thu 17:00   SW 24/ 33  25.1 12.0  1012.8    0.0   0.0   0.0   0.0   10000 
Thu 17:30    S 26/ 35  24.5 11.1  1012.9    0.0   0.0   0.0   0.0   10000 
Thu 18:00    S 24/ 35  23.7  9.7  1013.0    0.0   0.0   0.0   0.0   10000 
Thu 18:30    S 22/ 33  23.1  8.8  1013.2    0.0   0.0   0.0   0.0   10000 
Thu 19:00    S 24/ 32  22.2  6.4  1013.5    0.0   0.0   0.0   0.0   10000 
Thu 19:30  SSW 15/ 24  21.1  8.0  1013.9    0.0   0.0   0.0   0.0   10000 
Thu 20:00  SSW 20/ 28  19.3  8.0  1014.5    0.0   0.0   0.0   0.0   10000 
Thu 20:30  SSW 17/ 22  18.1  8.1  1014.7    0.0   0.0   0.0   0.0   10000 
Thu 21:00  SSW 15/ 22  17.0  7.9  1015.0    0.0   0.0   0.0   0.0   10000 
Thu 21:30    S 13/ 17  15.7  7.7  1014.9    0.0   0.0   0.0   0.0   10000 
Thu 22:00  SSW 15/ 20  15.8  7.1  1015.3    0.0   0.0   0.0   0.0   10000 

PUCKAPUNYAL LYON HILL (DEFENCE)

Site: 088167
Alt: 193.0m
km of


  Time     Wind        Temp  DP   Baro     Rain since   Rain past  Vis(m), Cloud(base in m), Weather
  local        km/h                         9am  last   hr   10m    
Thu 17:00    S 28/ 41  22.8 10.6  ------    0.0   0.0   0.0   0.0   ----- 
Thu 17:30    S 24/ 37  22.5  9.6  ------    0.0   0.0   0.0   0.0   ----- 
Thu 18:00    S 26/ 41  21.9  9.8  ------    0.0   0.0   0.0   0.0   ----- 
Thu 18:30    S 26/ 41  21.0  9.6  ------    0.0   0.0   0.0   0.0   ----- 
Thu 19:00    S 28/ 41  20.1  9.1  ------    0.0   0.0   0.0   0.0   ----- 
Thu 19:30    S 28/ 37  18.9  8.0  ------    0.0   0.0   0.0   0.0   ----- 
Thu 19:50    S 28/ 46  18.3  8.3  ------    0.0   0.0  ----   0.0   ----- 
Thu 20:00    S 28/ 41  18.0  8.3  ------    0.0   0.0   0.0   0.0   ----- 
Thu 20:30    S 26/ 39  17.1  8.3  ------    0.0   0.0   0.0   0.0   ----- 
Thu 21:00    S 28/ 41  16.4  7.9  ------    0.0   0.0   0.0   0.0   ----- 
Thu 21:30    S 26/ 43  15.8  7.8  ------    0.0   0.0   0.0   0.0   ----- 
Thu 22:00    S 20/ 30  15.0  8.0  ------    0.0   0.0   0.0   0.0   ----- 

PUCKAPUNYAL WEST (DEFENCE)

Site: 088166
Alt: 293.0m
km of


  Time     Wind        Temp  DP   Baro     Rain since   Rain past  Vis(m), Cloud(base in m), Weather
  local        km/h                         9am  last   hr   10m    
Thu 17:00  SSE 33/ 48  20.2  9.7  ------    0.0   0.0   0.0   0.0   ----- 
Thu 17:30    S 35/ 48  19.6  9.5  ------    0.0   0.0   0.0   0.0   ----- 
Thu 18:00    S 33/ 48  19.2  9.4  ------    0.0   0.0   0.0   0.0   ----- 
Thu 18:30    S 33/ 48  18.4  8.7  ------    0.0   0.0   0.0   0.0   ----- 
Thu 19:00    S 39/ 54  17.7  8.0  ------    0.0   0.0   0.0   0.0   ----- 
Thu 19:30    S 33/ 48  16.6  7.0  ------    0.0   0.0   0.0   0.0   ----- 
Thu 20:00    S 33/ 48  15.9  7.4  ------    0.0   0.0   0.0   0.0   ----- 
Thu 20:30    S 28/ 41  15.2  7.3  ------    0.0   0.0   0.0   0.0   ----- 
Thu 21:00    S 28/ 39  14.7  6.8  ------    0.0   0.0   0.0   0.0   ----- 
Thu 21:30    S 20/ 30  13.9  7.0  ------    0.0   0.0   0.0   0.0   ----- 
Thu 22:00    S 26/ 35  13.4  7.4  ------    0.0   0.0   0.0   0.0   ----- 

REDESDALE

Site: 088051
Alt: 290.0m
36km SE of BENDIGO


  Time     Wind        Temp  DP   Baro     Rain since   Rain past  Vis(m), Cloud(base in m), Weather
  local        km/h                         9am  last   hr   10m    
Thu 17:00  SSE 19/ 32  24.0 12.0  ------   ----  ----  ----   0.0   ----- 
Thu 17:30  SSE 22/ 32  22.9 10.3  ------   ----  ----  ----   0.0   ----- 
Thu 18:00  SSE 19/ 32  21.6  9.2  ------   ----  ----  ----   0.0   ----- 
Thu 18:30    S 20/ 30  20.6  8.9  ------   ----  ----  ----   0.0   ----- 
Thu 19:00  SSE 22/ 32  19.0  7.8  ------   ----  ----  ----   0.0   ----- 
Thu 19:30    S 15/ 22  17.4  7.5  ------   ----  ----  ----   0.0   ----- 
Thu 20:00    S 13/ 20  16.1  6.5  ------   ----  ----  ----   0.0   ----- 
Thu 20:30    S 11/ 15  14.5  3.9  ------   ----  ----  ----   0.0   ----- 
Thu 21:00    S  9/ 13  12.7  4.9  ------   ----  ----  ----   0.0   ----- 
Thu 21:30  SSW  9/ 15  12.3  6.1  ------   ----  ----  ----   0.0   ----- 
Thu 22:00    S 11/ 15  12.3  6.4  ------   ----  ----  ----   0.0   ----- 

WALLAN (KILMORE GAP)

Site: 088162
Alt: 527.8m
43km SSW of SEYMOUR


  Time     Wind        Temp  DP   Baro     Rain since   Rain past  Vis(m), Cloud(base in m), Weather
  local        km/h                         9am  last   hr   10m    
Thu 17:00    S 33/ 48  16.5  9.4  1016.1    0.0   0.0   0.0   0.0   10000 
Thu 17:04    S 30/ 48  16.6  9.8  1016.2    0.0   0.0  ----   0.0   10000 
Thu 17:30    S 33/ 46  16.4  9.3  1016.0    0.0   0.0   0.0   0.0   10000 
Thu 18:00    S 26/ 41  16.1  8.3  1016.0    0.0   0.0   0.0   0.0   10000 
Thu 18:30    S 33/ 46  15.2  7.7  1016.1    0.0   0.0   0.0   0.0   10000 
Thu 18:56    S 28/ 48  14.9  7.7  1016.2    0.0   0.0  ----   0.0   10000 
Thu 19:00    S 30/ 48  14.8  8.1  1016.2    0.0   0.0   0.0   0.0   10000 
Thu 19:30    S 28/ 39  14.1  8.1  1016.6    0.0   0.0   0.0   0.0   10000 
Thu 20:00    S 20/ 30  12.9  8.0  1016.7    0.0   0.0   0.0   0.0   10000 
Thu 20:30    S 19/ 28  11.9  8.2  1017.4    0.0   0.0   0.0   0.0   10000 
Thu 21:00    S 20/ 33  11.1  8.3  1017.1    0.0   0.0   0.0   0.0   10000 
Thu 21:30    S 19/ 28  10.6  8.0  1017.3    0.0   0.0   0.0   0.0   10000 
Thu 22:00    S 20/ 28  10.2  7.4  1017.4    0.0   0.0   0.0   0.0   10000